Terminal Aerodrome Forecast
Issued by NWS Des Moines, IA

Home | Current Version | Previous Version | Text Only | Print | Product List | Glossary On
Versions: 1 2 3 4 5 6 7 8 9 10 11 12 13 14 15 16 17 18 19 20 21 22 23 24 25 26 27 28 29 30 31
000
FTUS43 KDMX 011729
TAFALO
TAF
KALO 011729Z 0118/0218 26011KT P6SM SCT200
     FM020100 23008KT P6SM SCT150
     FM020400 22009KT P6SM VCTS SCT045CB BKN120
     FM021100 23010KT P6SM FEW050 BKN120
     FM021400 24014G20KT P6SM SKC=

USA.gov is the U.S. government's official web portal to all federal, state and local government web resources and services.